Accueil
METAR-TAF:

METAR-TAF

Aéroports :

Aéroport d'Oslo-Gardermoen

Oslo, Norvège

latitude: 60-12N, longitude: 011-05E, altitude: 208 m

Observation

Le bulletin a été fait il y a 28 minutes, à 10:50 UTC
Vent 9 kt de nord
Température 14°C
Humidité 58%
Pression 1010 hPa
Visibilité 10 km ou plus
Nuages épars à une hauteur de 3600 ft
Nuages fragmentés à une hauteur de 15000 ft

METAR: ENGM 201050Z 35009KT 9999 SCT036 BKN150 14/06 Q1010 NOSIG

Heure: 13:18 (11:18 UTC)

Prévision

Prévision valable du 20 à 06 UTC au 21 à 06 UTC
Vent 8 kt de nord
Visibilité 10 km ou plus
pas de nuages en-dessous de 1500 mètres et pas de cumulonimbus.

TAF: ENGM 2006/2106 36008KT CAVOK

Observations et prévisions météorologiques de plus de 4000 aéroports (messages METAR et TAF).

Les stations disponibles sont représentées par des disques jaunes et rouges sur la carte.

Passer la souris dessus pour voir le nom de la station.

Cliquer dessus pour voir les observations et prévisions météorologiques.

Pour changer de carte: cliquez sur les boutons verts avec une croix noire pour zoomer, sur le bouton vert avec un tiret pour effectuer un zoom arrière, ou sur les flèches vertes pour les cartes adjacentes.


METAR-TAF: